createdAt,value
2023-03-03T00:01:33.074Z,119.60
2023-03-03T00:04:00.638Z,114.77
2023-03-03T00:06:30.028Z,109.33
2023-03-03T00:08:57.833Z,106.87
2023-03-03T00:11:25.087Z,112.47
2023-03-03T00:13:54.491Z,115.70
2023-03-03T00:16:39.305Z,108.80
2023-03-03T00:19:17.997Z,121.17
2023-03-03T00:21:49.012Z,112.90
2023-03-03T00:24:21.366Z,123.83
2023-03-03T00:26:56.541Z,127.83
2023-03-03T00:29:37.915Z,124.83
2023-03-03T00:32:18.162Z,134.43
2023-03-03T00:34:45.603Z,127.43
2023-03-03T00:37:27.913Z,121.90
2023-03-03T00:40:01.543Z,130.97
2023-03-03T00:42:28.906Z,135.87
2023-03-03T00:45:00.910Z,151.27
2023-03-03T00:47:31.080Z,161.17
2023-03-03T00:50:07.043Z,152.93
2023-03-03T00:52:36.331Z,141.93
2023-03-03T00:55:04.488Z,159.23
2023-03-03T00:57:31.770Z,145.20
2023-03-03T00:59:59.065Z,150.70
2023-03-03T01:02:26.334Z,150.93
2023-03-03T01:04:56.481Z,142.27
2023-03-03T01:07:24.302Z,149.90
2023-03-03T01:09:51.516Z,146.20
2023-03-03T01:12:18.765Z,140.80
2023-03-03T01:14:46.057Z,138.93
2023-03-03T01:17:13.309Z,139.73
2023-03-03T01:19:40.506Z,137.30
2023-03-03T01:22:07.740Z,131.57
2023-03-03T01:24:34.993Z,138.43
2023-03-03T01:27:02.216Z,157.93
2023-03-03T01:29:29.433Z,147.73
2023-03-03T01:31:56.696Z,146.93
2023-03-03T01:34:23.927Z,155.57
2023-03-03T01:36:51.171Z,161.80
2023-03-03T01:39:18.392Z,150.90
2023-03-03T01:41:45.664Z,139.50
2023-03-03T01:44:15.240Z,146.30
2023-03-03T01:46:48.068Z,153.63
2023-03-03T01:49:29.174Z,147.03
2023-03-03T01:51:59.108Z,152.73
2023-03-03T01:54:31.119Z,193.50
2023-03-03T01:57:02.939Z,160.40
2023-03-03T01:59:35.893Z,149.97
2023-03-03T02:02:03.859Z,131.43
2023-03-03T02:04:30.914Z,122.53
2023-03-03T02:07:11.237Z,124.67
2023-03-03T02:09:48.703Z,140.17
2023-03-03T02:12:19.453Z,135.03
2023-03-03T02:14:46.434Z,124.37
2023-03-03T02:17:13.315Z,122.67
2023-03-03T02:20:19.281Z,131.17
2023-03-03T02:22:55.424Z,127.30
2023-03-03T02:25:42.288Z,116.77
2023-03-03T02:28:09.243Z,109.73
2023-03-03T02:30:40.027Z,116.00
2023-03-03T02:33:07.287Z,129.60
2023-03-03T02:35:39.532Z,124.63
2023-03-03T02:38:21.997Z,130.53
2023-03-03T02:41:05.053Z,114.83
2023-03-03T02:43:42.446Z,117.10
2023-03-03T02:46:09.332Z,128.17
2023-03-03T02:48:36.134Z,127.23
2023-03-03T02:51:02.989Z,145.30
2023-03-03T02:53:29.930Z,136.53
2023-03-03T02:55:56.800Z,118.97
2023-03-03T02:58:23.742Z,123.97
2023-03-03T03:00:50.619Z,124.00
2023-03-03T03:03:17.514Z,125.17
2023-03-03T03:05:44.364Z,121.43
2023-03-03T03:08:11.168Z,146.97
2023-03-03T03:10:38.092Z,123.10
2023-03-03T03:13:05.010Z,121.60
2023-03-03T03:15:31.822Z,113.00
2023-03-03T03:17:58.766Z,109.83
2023-03-03T03:20:25.589Z,105.60
2023-03-03T03:22:52.450Z,100.77
2023-03-03T03:25:19.329Z,98.37
2023-03-03T03:27:46.202Z,94.90
2023-03-03T03:30:13.687Z,103.13
2023-03-03T03:32:40.538Z,107.73
2023-03-03T03:35:07.863Z,108.23
2023-03-03T03:37:34.657Z,104.73
2023-03-03T03:40:01.516Z,112.87
2023-03-03T03:42:28.740Z,107.40
2023-03-03T03:44:55.962Z,114.40
2023-03-03T03:47:23.227Z,110.47
2023-03-03T03:49:50.088Z,108.70
2023-03-03T03:52:17.381Z,100.43
2023-03-03T03:54:44.666Z,89.10
2023-03-03T03:57:12.159Z,104.00
2023-03-03T03:59:39.431Z,102.70
2023-03-03T04:02:06.393Z,105.80
2023-03-03T04:04:33.302Z,96.43
2023-03-03T04:07:00.630Z,91.23
2023-03-03T04:09:28.565Z,92.83
2023-03-03T04:11:55.768Z,100.13
2023-03-03T04:14:22.994Z,99.23
2023-03-03T04:16:49.832Z,102.33
2023-03-03T04:19:17.098Z,102.97
2023-03-03T04:21:44.349Z,112.20
2023-03-03T04:24:12.102Z,91.40
2023-03-03T04:26:39.358Z,93.07
2023-03-03T04:29:06.860Z,97.40
2023-03-03T04:31:34.098Z,112.63
2023-03-03T04:34:00.926Z,129.13
2023-03-03T04:36:27.755Z,117.47
2023-03-03T04:38:54.610Z,124.17
2023-03-03T04:41:21.465Z,128.43
2023-03-03T04:43:48.331Z,119.43
2023-03-03T04:46:15.307Z,126.60
2023-03-03T04:48:42.586Z,130.43
2023-03-03T04:51:09.446Z,132.50
2023-03-03T04:53:38.376Z,116.60
2023-03-03T04:56:05.713Z,116.37
2023-03-03T04:58:32.613Z,106.80
2023-03-03T05:01:00.014Z,119.27
2023-03-03T05:03:27.405Z,115.57
2023-03-03T05:05:54.444Z,104.00
2023-03-03T05:08:21.722Z,111.73
2023-03-03T05:10:53.092Z,93.10
2023-03-03T05:13:20.339Z,91.20
2023-03-03T05:15:55.842Z,82.23
2023-03-03T05:18:24.346Z,83.17
2023-03-03T05:20:52.093Z,75.17
2023-03-03T05:23:20.025Z,74.07
2023-03-03T05:25:50.518Z,63.73
2023-03-03T05:28:17.993Z,60.23
2023-03-03T05:30:45.148Z,61.60
2023-03-03T05:33:16.721Z,60.13
2023-03-03T05:35:44.093Z,57.67
2023-03-03T05:38:11.484Z,60.47
2023-03-03T05:40:38.956Z,58.27
2023-03-03T05:43:07.208Z,63.37
2023-03-03T05:45:35.448Z,69.10
2023-03-03T05:48:03.387Z,71.57
2023-03-03T05:50:30.257Z,82.17
2023-03-03T05:52:57.913Z,76.30
2023-03-03T05:55:25.707Z,78.23
2023-03-03T05:57:52.966Z,73.83
2023-03-03T06:00:20.448Z,69.53
2023-03-03T06:02:47.829Z,82.40
2023-03-03T06:05:15.229Z,76.87
2023-03-03T06:07:42.577Z,80.10
2023-03-03T06:10:10.147Z,71.70
2023-03-03T06:12:39.120Z,72.83
2023-03-03T06:15:07.456Z,58.03
2023-03-03T06:17:35.065Z,53.63
2023-03-03T06:20:03.063Z,53.33
2023-03-03T06:22:30.692Z,50.30
2023-03-03T06:24:57.924Z,51.90
2023-03-03T06:27:25.161Z,52.00
2023-03-03T06:29:52.407Z,54.63
2023-03-03T06:32:19.792Z,57.50
2023-03-03T06:34:47.001Z,63.00
2023-03-03T06:37:14.285Z,64.87
2023-03-03T06:39:41.577Z,67.20
2023-03-03T06:42:09.675Z,58.80
2023-03-03T06:44:37.195Z,61.43
2023-03-03T06:47:04.431Z,73.73
2023-03-03T06:49:31.596Z,63.67
2023-03-03T06:52:01.789Z,55.67
2023-03-03T06:54:30.865Z,56.77
2023-03-03T06:57:06.502Z,56.00
2023-03-03T06:59:33.758Z,49.13
2023-03-03T07:02:01.168Z,42.67
2023-03-03T07:04:33.850Z,43.13
2023-03-03T07:07:06.810Z,37.40
2023-03-03T07:09:34.034Z,31.53
2023-03-03T07:12:10.992Z,36.83
2023-03-03T07:14:42.956Z,39.73
2023-03-03T07:17:16.593Z,42.17
2023-03-03T07:19:44.339Z,43.07
2023-03-03T07:22:14.620Z,48.70
2023-03-03T07:24:43.400Z,48.60
2023-03-03T07:27:10.636Z,57.60
2023-03-03T07:29:41.318Z,51.97
2023-03-03T07:32:20.541Z,51.33
2023-03-03T07:34:49.077Z,41.87
2023-03-03T07:37:35.101Z,39.37
2023-03-03T07:40:04.545Z,43.93
2023-03-03T07:42:40.145Z,38.63
2023-03-03T07:45:25.734Z,44.20
2023-03-03T07:47:53.022Z,53.30
2023-03-03T07:50:22.916Z,61.90
2023-03-03T07:52:56.994Z,54.80
2023-03-03T07:55:40.695Z,61.73
2023-03-03T07:58:15.639Z,46.90
2023-03-03T08:00:46.184Z,46.80
2023-03-03T08:03:17.846Z,45.50
2023-03-03T08:05:47.957Z,47.53
2023-03-03T08:08:31.984Z,41.67
2023-03-03T08:11:00.304Z,48.27
2023-03-03T08:13:41.882Z,50.97
2023-03-03T08:16:11.773Z,47.50
2023-03-03T08:19:02.129Z,47.73
2023-03-03T08:21:29.202Z,42.10
2023-03-03T08:23:56.096Z,49.20
2023-03-03T08:26:24.584Z,35.83
2023-03-03T08:28:52.484Z,37.27
2023-03-03T08:31:34.356Z,43.53
2023-03-03T08:34:06.758Z,48.20
2023-03-03T08:36:34.797Z,46.93
2023-03-03T08:39:02.620Z,47.33
2023-03-03T08:41:29.442Z,42.77
2023-03-03T08:43:56.290Z,40.20
2023-03-03T08:46:23.212Z,37.67
2023-03-03T08:48:50.101Z,34.40
2023-03-03T08:51:16.986Z,33.33
2023-03-03T08:53:43.841Z,39.93
2023-03-03T08:56:10.771Z,54.37
2023-03-03T08:58:37.781Z,44.27
2023-03-03T09:01:05.160Z,44.17
2023-03-03T09:03:32.207Z,46.40
2023-03-03T09:05:59.100Z,54.73
2023-03-03T09:08:26.115Z,53.20
2023-03-03T09:10:52.986Z,52.40
2023-03-03T09:13:20.551Z,41.97
2023-03-03T09:15:49.347Z,42.10
2023-03-03T09:18:19.950Z,40.67
2023-03-03T09:20:48.012Z,43.20
2023-03-03T09:23:23.867Z,45.50
2023-03-03T09:25:51.991Z,46.87
2023-03-03T09:28:39.101Z,46.13
2023-03-03T09:31:39.738Z,42.20
2023-03-03T09:34:38.214Z,52.40
2023-03-03T09:37:24.269Z,55.60
2023-03-03T09:39:55.750Z,52.10
2023-03-03T09:42:43.066Z,53.43
2023-03-03T09:45:19.438Z,49.50
2023-03-03T09:47:56.861Z,53.77
2023-03-03T09:50:36.250Z,39.93
2023-03-03T09:53:03.509Z,43.63
2023-03-03T09:55:46.037Z,41.93
2023-03-03T09:58:36.145Z,48.53
2023-03-03T10:01:47.646Z,49.00
2023-03-03T10:04:20.957Z,53.17
2023-03-03T10:06:48.176Z,58.60
2023-03-03T10:09:41.516Z,54.53
2023-03-03T10:12:20.702Z,51.60
2023-03-03T10:14:53.899Z,53.13
2023-03-03T10:17:47.258Z,56.60
2023-03-03T10:20:50.531Z,60.97
2023-03-03T10:23:35.659Z,54.50
2023-03-03T10:26:05.549Z,55.13
2023-03-03T10:28:45.035Z,49.57
2023-03-03T10:31:35.412Z,46.93
2023-03-03T10:34:27.273Z,46.60
2023-03-03T10:36:57.586Z,48.87
2023-03-03T10:40:02.166Z,40.57
2023-03-03T10:42:40.175Z,39.20
2023-03-03T10:45:07.378Z,39.90
2023-03-03T10:47:44.016Z,42.93
2023-03-03T10:50:11.270Z,37.00
2023-03-03T10:52:49.733Z,40.13
2023-03-03T10:55:20.000Z,40.50
2023-03-03T10:57:47.182Z,48.37
2023-03-03T11:00:26.641Z,49.33
2023-03-03T11:03:30.012Z,42.67
2023-03-03T11:06:16.898Z,45.07
2023-03-03T11:09:02.783Z,41.07
2023-03-03T11:11:41.146Z,42.77
2023-03-03T11:14:10.976Z,36.67
2023-03-03T11:16:51.412Z,30.87
2023-03-03T11:19:37.110Z,33.07
2023-03-03T11:22:12.862Z,33.07
2023-03-03T11:24:51.176Z,32.37
2023-03-03T11:27:37.801Z,38.23
2023-03-03T11:30:19.595Z,31.73
2023-03-03T11:32:54.033Z,29.20
2023-03-03T11:35:34.607Z,27.73
2023-03-03T11:38:19.599Z,30.20
2023-03-03T11:40:54.955Z,32.93
2023-03-03T11:43:35.712Z,34.23
2023-03-03T11:46:13.259Z,30.00
2023-03-03T11:48:55.792Z,29.00
2023-03-03T11:51:47.747Z,32.40
2023-03-03T11:54:24.343Z,26.83
2023-03-03T11:56:53.937Z,28.10
2023-03-03T11:59:50.873Z,30.73
2023-03-03T12:02:32.313Z,33.13
2023-03-03T12:05:09.797Z,28.77
2023-03-03T12:08:02.534Z,26.70
2023-03-03T12:10:32.139Z,31.93
2023-03-03T12:13:02.713Z,31.17
2023-03-03T12:15:54.669Z,31.03
2023-03-03T12:18:43.359Z,32.13
2023-03-03T12:21:18.738Z,31.57
2023-03-03T12:24:14.119Z,30.27
2023-03-03T12:26:57.921Z,31.47
2023-03-03T12:29:39.756Z,29.43
2023-03-03T12:32:21.887Z,28.57
2023-03-03T12:34:56.129Z,30.57
2023-03-03T12:37:44.910Z,31.13
2023-03-03T12:40:33.739Z,34.73
2023-03-03T12:43:33.081Z,29.47
2023-03-03T12:46:45.051Z,29.93
2023-03-03T12:49:12.177Z,31.07
2023-03-03T12:52:06.549Z,30.63
2023-03-03T12:55:16.730Z,28.23
2023-03-03T12:58:02.591Z,28.50
2023-03-03T13:00:47.897Z,31.07
2023-03-03T13:03:55.700Z,27.17
2023-03-03T13:06:30.339Z,27.63
2023-03-03T13:09:12.471Z,27.33
2023-03-03T13:12:00.357Z,25.80
2023-03-03T13:14:45.469Z,26.17
2023-03-03T13:17:15.352Z,28.87
2023-03-03T13:19:51.601Z,23.93
2023-03-03T13:22:46.478Z,26.23
2023-03-03T13:25:38.069Z,28.40
2023-03-03T13:28:42.830Z,24.77
2023-03-03T13:31:21.690Z,28.43
2023-03-03T13:34:00.390Z,34.63
2023-03-03T13:36:34.489Z,27.70
2023-03-03T13:39:20.519Z,30.17
2023-03-03T13:41:50.405Z,32.73
2023-03-03T13:44:42.652Z,32.90
2023-03-03T13:47:24.070Z,32.50
2023-03-03T13:50:06.109Z,31.93
2023-03-03T13:52:44.639Z,28.87
2023-03-03T13:55:41.119Z,32.90
2023-03-03T13:58:07.891Z,31.83
2023-03-03T14:00:38.770Z,28.70
2023-03-03T14:03:27.361Z,30.43
2023-03-03T14:06:09.349Z,31.87
2023-03-03T14:09:00.889Z,34.17
2023-03-03T14:11:45.622Z,37.23
2023-03-03T14:14:15.542Z,32.97
2023-03-03T14:16:57.596Z,28.20
2023-03-03T14:19:32.924Z,30.93
2023-03-03T14:22:23.803Z,28.47
2023-03-03T14:25:07.131Z,34.33
2023-03-03T14:27:59.748Z,28.07
2023-03-03T14:30:39.065Z,29.67
2023-03-03T14:33:08.981Z,34.33
2023-03-03T14:35:59.435Z,33.83
2023-03-03T14:38:32.502Z,31.00
2023-03-03T14:41:11.707Z,31.03
2023-03-03T14:43:43.751Z,29.53
2023-03-03T14:46:30.501Z,28.50
2023-03-03T14:49:00.854Z,27.60
2023-03-03T14:51:44.756Z,30.50
2023-03-03T14:54:22.483Z,29.47
2023-03-03T14:57:02.223Z,31.80
2023-03-03T14:59:30.718Z,29.93
2023-03-03T15:02:18.502Z,31.23
2023-03-03T15:04:47.708Z,30.13
2023-03-03T15:07:29.374Z,33.07
2023-03-03T15:09:56.168Z,30.70
2023-03-03T15:12:25.131Z,34.67
2023-03-03T15:15:02.638Z,32.07
2023-03-03T15:17:36.789Z,29.90
2023-03-03T15:20:05.426Z,30.77
2023-03-03T15:22:41.860Z,29.13
2023-03-03T15:25:43.985Z,35.60
2023-03-03T15:28:30.108Z,31.67
2023-03-03T15:31:36.487Z,33.73
2023-03-03T15:34:25.042Z,25.57
2023-03-03T15:36:54.658Z,28.20
2023-03-03T15:39:21.471Z,29.43
2023-03-03T15:42:03.178Z,30.43
2023-03-03T15:44:35.761Z,28.27
2023-03-03T15:47:05.348Z,34.23
2023-03-03T15:49:54.272Z,28.93
2023-03-03T15:52:53.199Z,29.07
2023-03-03T15:55:57.643Z,28.73
2023-03-03T15:58:33.365Z,37.37
2023-03-03T16:01:03.237Z,33.00
2023-03-03T16:03:47.256Z,30.30
2023-03-03T16:06:37.420Z,31.83
2023-03-03T16:09:52.844Z,33.70
2023-03-03T16:12:55.372Z,32.17
2023-03-03T16:15:43.849Z,34.97
2023-03-03T16:18:44.275Z,36.10
2023-03-03T16:21:21.874Z,34.57
2023-03-03T16:23:57.102Z,34.53
2023-03-03T16:26:43.755Z,41.60
2023-03-03T16:29:16.647Z,38.37
2023-03-03T16:32:01.352Z,34.97
2023-03-03T16:34:38.688Z,37.70
2023-03-03T16:37:21.210Z,38.43
2023-03-03T16:39:57.004Z,34.83
2023-03-03T16:42:29.717Z,32.70
2023-03-03T16:45:21.786Z,35.27
2023-03-03T16:47:51.458Z,31.70
2023-03-03T16:50:37.085Z,35.40
2023-03-03T16:53:19.254Z,36.00
2023-03-03T16:56:08.294Z,37.70
2023-03-03T16:59:04.696Z,49.37
2023-03-03T17:02:04.512Z,64.27
2023-03-03T17:04:31.340Z,48.27
2023-03-03T17:07:30.151Z,44.13
2023-03-03T17:10:16.392Z,41.27
2023-03-03T17:13:08.851Z,42.23
2023-03-03T17:15:53.535Z,39.37
2023-03-03T17:18:39.179Z,41.20
2023-03-03T17:21:20.436Z,37.23
2023-03-03T17:23:56.240Z,38.93
2023-03-03T17:26:33.905Z,46.23
2023-03-03T17:29:21.896Z,37.37
2023-03-03T17:32:04.044Z,46.37
2023-03-03T17:34:38.917Z,40.97
2023-03-03T17:37:28.149Z,40.50
2023-03-03T17:40:04.165Z,43.30
2023-03-03T17:42:40.020Z,40.50
2023-03-03T17:45:12.728Z,38.47
2023-03-03T17:47:57.928Z,36.93
2023-03-03T17:51:00.800Z,34.30
2023-03-03T17:53:45.876Z,37.37
2023-03-03T17:56:33.122Z,34.53
2023-03-03T17:59:10.527Z,31.97
2023-03-03T18:02:04.817Z,31.83
2023-03-03T18:04:46.472Z,30.67
2023-03-03T18:07:13.570Z,31.43
2023-03-03T18:09:47.268Z,36.87
2023-03-03T18:12:33.628Z,37.53
2023-03-03T18:15:19.347Z,34.87
2023-03-03T18:18:15.661Z,34.97
2023-03-03T18:20:42.510Z,35.83
2023-03-03T18:23:34.176Z,33.77
2023-03-03T18:26:02.950Z,39.03
2023-03-03T18:28:50.505Z,38.03
2023-03-03T18:31:26.265Z,37.13
2023-03-03T18:34:09.281Z,38.53
2023-03-03T18:36:39.635Z,36.80
2023-03-03T18:39:14.026Z,42.77
2023-03-03T18:42:09.670Z,38.77
2023-03-03T18:44:36.705Z,37.57
2023-03-03T18:47:04.258Z,38.40
2023-03-03T18:50:14.493Z,40.43
2023-03-03T18:53:08.660Z,41.80
2023-03-03T18:56:03.209Z,51.80
2023-03-03T18:58:35.023Z,46.90
2023-03-03T19:01:33.557Z,50.10
2023-03-03T19:04:12.110Z,50.07
2023-03-03T19:06:38.969Z,45.40
2023-03-03T19:09:07.339Z,50.40
2023-03-03T19:11:49.784Z,49.20
2023-03-03T19:14:29.772Z,55.70
2023-03-03T19:16:58.344Z,53.53
2023-03-03T19:19:34.446Z,54.00
2023-03-03T19:22:27.455Z,54.80
2023-03-03T19:25:09.292Z,51.70
2023-03-03T19:27:43.389Z,55.30
2023-03-03T19:30:23.930Z,52.83
2023-03-03T19:33:08.322Z,54.67
2023-03-03T19:35:59.348Z,55.80
2023-03-03T19:38:40.959Z,56.13
2023-03-03T19:41:38.793Z,54.57
2023-03-03T19:44:20.158Z,63.57
2023-03-03T19:46:50.403Z,63.77
2023-03-03T19:49:42.305Z,67.43
2023-03-03T19:52:29.805Z,63.63
2023-03-03T19:55:15.652Z,66.80
2023-03-03T19:57:51.759Z,69.97
2023-03-03T20:00:49.628Z,71.27
2023-03-03T20:03:45.159Z,70.90
2023-03-03T20:06:20.850Z,75.23
2023-03-03T20:09:17.750Z,77.77
2023-03-03T20:11:48.377Z,72.90
2023-03-03T20:14:37.237Z,73.00
2023-03-03T20:17:13.007Z,70.40
2023-03-03T20:19:45.727Z,74.87
2023-03-03T20:22:38.642Z,74.63
2023-03-03T20:25:08.847Z,69.63
2023-03-03T20:27:53.901Z,76.63
2023-03-03T20:30:39.217Z,73.57
2023-03-03T20:33:45.648Z,76.43
2023-03-03T20:36:28.826Z,72.27
2023-03-03T20:39:08.234Z,77.00
2023-03-03T20:41:56.115Z,83.43
2023-03-03T20:44:57.767Z,77.07
2023-03-03T20:47:49.414Z,85.70
2023-03-03T20:50:28.932Z,85.20
2023-03-03T20:53:14.142Z,80.87
2023-03-03T20:55:59.990Z,80.07
2023-03-03T20:58:43.158Z,83.13
2023-03-03T21:01:26.139Z,85.37
2023-03-03T21:03:55.099Z,87.63
2023-03-03T21:06:39.141Z,92.03
2023-03-03T21:09:06.187Z,92.20
2023-03-03T21:11:33.036Z,98.67
2023-03-03T21:14:12.160Z,91.70
2023-03-03T21:16:41.920Z,88.20
2023-03-03T21:19:22.741Z,82.23
2023-03-03T21:21:50.654Z,80.80
2023-03-03T21:24:20.797Z,76.43
2023-03-03T21:26:58.937Z,71.13
2023-03-03T21:29:27.431Z,67.87
2023-03-03T21:32:01.487Z,64.77
2023-03-03T21:34:37.296Z,64.47
2023-03-03T21:37:10.045Z,64.50
2023-03-03T21:39:39.783Z,60.23
2023-03-03T21:42:08.037Z,63.27
2023-03-03T21:44:44.391Z,62.27
2023-03-03T21:47:15.204Z,60.30
2023-03-03T21:49:43.985Z,65.33
2023-03-03T21:52:12.447Z,63.40
2023-03-03T21:54:39.650Z,65.27
2023-03-03T21:57:06.654Z,67.57
2023-03-03T21:59:33.510Z,68.27
2023-03-03T22:02:00.496Z,69.23
2023-03-03T22:04:27.739Z,68.53
2023-03-03T22:06:54.763Z,63.50
2023-03-03T22:09:21.884Z,66.43
2023-03-03T22:11:49.032Z,68.10
2023-03-03T22:14:16.345Z,70.77
2023-03-03T22:16:43.479Z,69.30
2023-03-03T22:19:10.424Z,63.87
2023-03-03T22:21:38.628Z,62.63
2023-03-03T22:24:06.848Z,64.30
2023-03-03T22:26:33.928Z,71.03
2023-03-03T22:29:01.622Z,65.27
2023-03-03T22:31:29.801Z,69.00
2023-03-03T22:33:56.736Z,65.73
2023-03-03T22:36:23.642Z,59.83
2023-03-03T22:38:50.614Z,62.47
2023-03-03T22:41:18.315Z,63.33
2023-03-03T22:43:45.256Z,58.20
2023-03-03T22:46:12.286Z,61.77
2023-03-03T22:48:39.970Z,55.33
2023-03-03T22:51:07.200Z,57.30
2023-03-03T22:53:34.284Z,54.20
2023-03-03T22:56:01.489Z,48.67
2023-03-03T22:58:29.944Z,48.70
2023-03-03T23:00:57.133Z,49.50
2023-03-03T23:03:24.496Z,47.07
2023-03-03T23:05:52.137Z,44.97
2023-03-03T23:08:20.590Z,46.43
2023-03-03T23:10:48.367Z,45.87
2023-03-03T23:13:15.721Z,43.77
2023-03-03T23:15:43.069Z,38.60
2023-03-03T23:18:10.571Z,38.87
2023-03-03T23:20:38.052Z,43.30
2023-03-03T23:23:05.327Z,38.80
2023-03-03T23:25:32.693Z,41.17
2023-03-03T23:28:00.564Z,43.63
2023-03-03T23:30:27.559Z,40.03
2023-03-03T23:32:54.849Z,37.13
2023-03-03T23:35:22.372Z,39.60
2023-03-03T23:37:49.787Z,35.90
2023-03-03T23:40:17.533Z,38.07
2023-03-03T23:42:45.003Z,38.43
2023-03-03T23:45:13.183Z,39.63
2023-03-03T23:47:40.724Z,40.03
2023-03-03T23:50:09.460Z,40.17
2023-03-03T23:52:36.555Z,39.53
2023-03-03T23:55:03.965Z,40.20
2023-03-03T23:57:30.880Z,35.73
2023-03-03T23:59:57.871Z,36.40
